Time;durP1;ratioP1;P1;durP2;ratioP2;P2;SDS_P1;SDS_P2;PMS_P1;PMS_P2;Temp;Humidity;BMP_temperature;BMP_pressure;BME280_temperature;BME280_humidity;BME280_pressure;Samples;Min_cycle;Max_cycle;Signal;HPM_P1;HPM_P2
2023/12/08 00:02:08;;;;;;;16.08;4.80;;;;;;;-23.58;55.16;99124.75;6272377;28;20114;-69
2023/12/08 00:05:11;;;;;;;9.02;3.90;;;;;;;-23.59;55.45;99132.94;6272055;28;20406;-69
2023/12/08 00:08:15;;;;;;;4.20;3.20;;;;;;;-23.59;55.34;99127.09;6254586;28;20045;-69
2023/12/08 00:11:17;;;;;;;9.40;3.63;;;;;;;-23.54;55.27;99140.03;6247208;28;20134;-70
2023/12/08 00:14:21;;;;;;;4.72;3.15;;;;;;;-23.64;55.63;99129.09;6247139;28;20045;-69
2023/12/08 00:17:28;;;;;;;3.75;2.88;;;;;;;-23.64;55.50;99130.72;6229842;28;20045;-69
2023/12/08 00:20:29;;;;;;;10.18;4.65;;;;;;;-23.70;55.47;99138.47;6228843;28;20053;-69
2023/12/08 00:23:38;;;;;;;6.88;3.72;;;;;;;-23.79;55.69;99121.72;6246951;28;20038;-69
2023/12/08 00:26:39;;;;;;;15.43;5.35;;;;;;;-23.73;55.57;99143.13;6246528;28;20100;-69
2023/12/08 00:29:40;;;;;;;9.48;3.92;;;;;;;-23.75;56.04;99148.69;6245247;28;20046;-70
2023/12/08 00:32:43;;;;;;;18.77;6.18;;;;;;;-23.79;56.16;99132.56;6246489;28;20049;-69
2023/12/08 00:35:44;;;;;;;10.63;4.55;;;;;;;-23.79;56.39;99137.53;6245428;28;20419;-70
2023/12/08 00:38:46;;;;;;;9.23;4.75;;;;;;;-23.85;55.88;99134.41;6245548;28;20060;-69
2023/12/08 00:41:50;;;;;;;8.00;4.25;;;;;;;-23.70;55.59;99143.44;6246713;28;20049;-69
2023/12/08 00:44:51;;;;;;;10.27;3.35;;;;;;;-23.64;55.89;99139.06;6245767;28;20507;-70
2023/12/08 00:47:57;;;;;;;10.00;3.77;;;;;;;-23.73;55.71;99129.81;6211821;28;20053;-70
2023/12/08 00:50:58;;;;;;;9.90;4.45;;;;;;;-23.67;56.05;99141.25;6245726;28;20452;-70
2023/12/08 00:53:59;;;;;;;8.48;5.25;;;;;;;-23.70;55.75;99140.97;6245094;28;20053;-70
2023/12/08 00:57:01;;;;;;;9.63;4.78;;;;;;;-23.77;55.94;99140.16;6245409;28;20053;-70
2023/12/08 01:00:05;;;;;;;14.18;5.00;;;;;;;-23.77;55.66;99152.63;6245973;28;20061;-69
2023/12/08 01:03:10;;;;;;;8.07;4.28;;;;;;;-23.85;55.81;99137.78;6246300;28;20518;-70
2023/12/08 01:06:11;;;;;;;9.48;5.20;;;;;;;-23.87;56.15;99143.31;6227858;28;20079;-70
2023/12/08 01:09:14;;;;;;;9.20;5.25;;;;;;;-23.92;56.31;99159.38;6245876;28;20626;-71
2023/12/08 01:12:16;;;;;;;;;;;;;;;-23.92;56.53;99150.28;6245347;28;20052;-69
2023/12/08 01:15:18;;;;;;;8.43;4.22;;;;;;;-23.96;56.06;99149.84;6245307;28;19921;-70
2023/12/08 01:18:22;;;;;;;14.30;5.45;;;;;;;-24.02;56.08;99151.69;6245656;28;20562;-69
2023/12/08 01:21:23;;;;;;;10.25;5.82;;;;;;;-24.06;56.16;99156.31;6245347;28;20049;-70
2023/12/08 01:24:28;;;;;;;18.52;7.15;;;;;;;-24.10;56.21;99143.41;6245519;28;20061;-69
2023/12/08 01:27:30;;;;;;;8.63;4.90;;;;;;;-24.09;56.19;99147.66;6244939;28;20136;-70
2023/12/08 01:30:36;;;;;;;14.95;9.00;;;;;;;-24.11;56.05;99137.56;6245481;28;20072;-70
2023/12/08 01:33:38;;;;;;;15.75;5.53;;;;;;;-24.04;56.24;99149.91;6245214;28;20053;-70
2023/12/08 01:36:42;;;;;;;15.20;6.57;;;;;;;-24.02;56.34;99136.75;6245606;28;20495;-70
2023/12/08 01:39:43;;;;;;;15.52;7.72;;;;;;;-24.11;56.13;99140.06;6244796;28;20049;-69
2023/12/08 01:42:47;;;;;;;24.95;7.28;;;;;;;-24.13;56.34;99134.03;6244859;28;20037;-69
2023/12/08 01:45:49;;;;;;;15.70;6.75;;;;;;;-24.15;56.66;99125.50;6244518;28;20056;-69
2023/12/08 01:48:54;;;;;;;14.25;7.15;;;;;;;-24.14;56.25;99122.31;6228046;28;20050;-70
2023/12/08 01:51:58;;;;;;;20.00;7.68;;;;;;;-24.13;56.17;99133.16;6244977;28;20503;-70
2023/12/08 01:55:00;;;;;;;22.25;7.15;;;;;;;-24.11;56.54;99142.53;6244212;28;20052;-69
2023/12/08 01:58:01;;;;;;;19.02;6.70;;;;;;;-24.10;56.42;99144.31;6243932;28;20053;-70
2023/12/08 02:01:06;;;;;;;22.52;6.95;;;;;;;-24.07;56.60;99137.16;6244793;28;20045;-70
2023/12/08 02:04:10;;;;;;;23.63;8.32;;;;;;;-24.01;56.50;99139.41;6244452;28;20050;-70
2023/12/08 02:07:17;;;;;;;20.67;9.45;;;;;;;-23.99;56.64;99142.94;6244288;28;20144;-70
2023/12/08 02:10:21;;;;;;;14.05;5.85;;;;;;;-23.94;56.29;99141.81;6244331;28;20610;-69
2023/12/08 02:13:24;;;;;;;18.10;9.45;;;;;;;-23.89;56.03;99144.75;6244310;28;20411;-70
2023/12/08 02:16:45;;;;;;;18.15;7.47;;;;;;;-23.84;56.52;99156.97;6244661;28;20045;-70
2023/12/08 02:19:49;;;;;;;18.08;8.07;;;;;;;-23.77;56.20;99151.03;6226101;28;20537;-70
2023/12/08 02:22:51;;;;;;;27.23;10.10;;;;;;;-23.82;56.45;99148.06;6243712;28;20046;-70
2023/12/08 02:25:53;;;;;;;23.80;8.02;;;;;;;-23.73;56.30;99158.06;6244426;28;20049;-69
2023/12/08 02:28:55;;;;;;;17.05;6.82;;;;;;;-23.73;56.64;99163.06;6244106;28;20037;-69
2023/12/08 02:32:05;;;;;;;15.43;5.68;;;;;;;-23.76;56.35;99161.88;6244306;28;20049;-69
2023/12/08 02:35:12;;;;;;;17.15;8.18;;;;;;;-23.95;56.08;99159.94;6244130;28;20466;-70
2023/12/08 02:38:22;;;;;;;25.75;7.82;;;;;;;-24.06;56.17;99166.28;6226248;28;20045;-70
2023/12/08 02:41:24;;;;;;;17.13;6.55;;;;;;;-24.23;56.04;99166.13;6243775;28;20076;-70
2023/12/08 02:44:28;;;;;;;20.63;6.53;;;;;;;-24.36;56.10;99163.97;6243896;28;20356;-70
2023/12/08 02:47:32;;;;;;;8.23;6.32;;;;;;;-24.47;56.02;99163.56;6244424;28;20064;-70
2023/12/08 02:50:34;;;;;;;12.48;5.65;;;;;;;-24.81;56.11;99137.59;6243016;28;20042;-71
2023/12/08 02:53:36;;;;;;;30.77;10.48;;;;;;;-24.70;56.45;99169.47;6242647;28;20582;-69
2023/12/08 02:56:39;;;;;;;16.85;5.82;;;;;;;-24.77;56.21;99159.56;6243859;28;20042;-70
2023/12/08 02:59:44;;;;;;;3.55;2.25;;;;;;;-24.78;56.21;99165.28;6247156;28;20053;-69
2023/12/08 03:02:45;;;;;;;13.32;6.93;;;;;;;-24.78;56.07;99176.09;6249017;28;20060;-70
2023/12/08 03:05:52;;;;;;;14.02;5.72;;;;;;;-24.84;56.95;99169.59;6248525;28;20499;-69
2023/12/08 03:08:58;;;;;;;17.15;6.45;;;;;;;-24.85;56.79;99181.09;6248677;28;20508;-70
2023/12/08 03:12:02;;;;;;;15.90;6.60;;;;;;;-24.89;56.63;99165.72;6248215;28;20171;-70
2023/12/08 03:15:06;;;;;;;13.35;6.68;;;;;;;-24.90;56.77;99173.88;6248439;28;20052;-69
2023/12/08 03:18:08;;;;;;;11.87;6.67;;;;;;;-24.96;56.36;99170.03;6248335;28;20041;-71
2023/12/08 03:21:19;;;;;;;11.77;5.68;;;;;;;-25.00;56.49;99180.34;6247774;28;20053;-70
2023/12/08 03:24:20;;;;;;;19.63;8.30;;;;;;;-25.07;56.72;99174.56;6230308;28;20423;-69
2023/12/08 03:27:24;;;;;;;9.43;5.63;;;;;;;-25.07;56.38;99172.09;6247992;28;20503;-70
2023/12/08 03:30:26;;;;;;;8.25;4.82;;;;;;;-25.16;56.94;99171.97;6247735;28;20159;-71
2023/12/08 03:33:27;;;;;;;11.18;4.85;;;;;;;-25.17;56.66;99176.78;6246934;28;20045;-70
2023/12/08 03:36:32;;;;;;;13.52;6.20;;;;;;;-25.12;56.52;99175.66;6247338;28;20534;-69
2023/12/08 03:39:36;;;;;;;15.25;6.40;;;;;;;-25.16;56.07;99179.41;6230729;28;20041;-70
2023/12/08 03:42:38;;;;;;;12.57;6.25;;;;;;;-25.29;56.51;99181.31;6246907;28;20696;-69
2023/12/08 03:45:42;;;;;;;10.15;4.65;;;;;;;-25.38;56.15;99181.19;6247118;28;20053;-70
2023/12/08 03:48:47;;;;;;;15.98;6.00;;;;;;;-25.47;56.08;99173.59;6247722;28;20396;-70
2023/12/08 03:51:49;;;;;;;9.85;4.25;;;;;;;-25.49;56.07;99189.94;6246890;28;20057;-70
2023/12/08 03:54:50;;;;;;;8.75;5.65;;;;;;;-25.55;56.15;99184.28;6248279;28;20056;-70
2023/12/08 03:57:54;;;;;;;14.57;5.00;;;;;;;-25.57;56.37;99185.72;6272175;28;20044;-69
2023/12/08 04:00:58;;;;;;;5.00;4.35;;;;;;;-25.56;56.92;99189.94;6270318;28;20506;-69
2023/12/08 04:03:59;;;;;;;1.67;1.65;;;;;;;-25.46;56.30;99187.78;6271011;28;20459;-70
2023/12/08 04:07:04;;;;;;;1.63;1.60;;;;;;;-25.50;56.48;99205.56;6271115;28;20083;-69
2023/12/08 04:10:06;;;;;;;7.40;4.00;;;;;;;-25.58;56.63;99201.34;6271102;28;20040;-70
2023/12/08 04:13:07;;;;;;;16.85;5.10;;;;;;;-25.60;56.60;99212.69;6271679;28;20051;-70
2023/12/08 04:16:14;;;;;;;2.50;2.25;;;;;;;-25.49;56.88;99219.72;6271582;28;20044;-70
2023/12/08 04:19:18;;;;;;;33.03;13.40;;;;;;;-25.57;56.10;99222.94;6270369;28;20060;-69
2023/12/08 04:22:20;;;;;;;17.92;7.00;;;;;;;-25.52;56.49;99226.81;6271144;28;20049;-70
2023/12/08 04:25:25;;;;;;;17.33;6.35;;;;;;;-25.52;56.13;99225.94;6271200;28;20083;-70
2023/12/08 04:28:26;;;;;;;15.20;6.00;;;;;;;-25.52;56.48;99229.31;6270486;28;20056;-69
2023/12/08 04:31:27;;;;;;;9.90;5.03;;;;;;;-25.50;56.49;99232.84;6270669;28;20132;-69
2023/12/08 04:34:31;;;;;;;13.90;4.75;;;;;;;-25.35;56.71;99240.25;6271197;28;20049;-70
2023/12/08 04:37:35;;;;;;;9.18;5.45;;;;;;;-25.32;56.15;99236.47;6271065;28;20037;-70
2023/12/08 04:40:37;;;;;;;8.93;5.55;;;;;;;-25.23;56.30;99246.53;6269109;28;20414;-70
2023/12/08 04:43:38;;;;;;;12.15;6.45;;;;;;;-25.13;56.77;99234.41;6270384;28;20131;-70
2023/12/08 04:46:43;;;;;;;17.23;6.60;;;;;;;-24.94;56.45;99242.25;6270677;28;20048;-70
2023/12/08 04:49:47;;;;;;;7.15;5.18;;;;;;;-24.82;56.16;99252.63;6269989;28;20059;-69
2023/12/08 04:52:49;;;;;;;12.98;6.40;;;;;;;-24.72;56.10;99251.31;6269991;28;20060;-71
2023/12/08 04:55:54;;;;;;;11.32;6.03;;;;;;;-24.50;56.05;99243.72;6247215;28;20057;-71
2023/12/08 04:58:55;;;;;;;5.57;3.72;;;;;;;-24.37;55.83;99256.69;6245136;28;20208;-70
2023/12/08 05:02:15;;;;;;;13.18;6.57;;;;;;;-24.41;55.63;99253.72;6227475;28;20045;-70
2023/12/08 05:05:17;;;;;;;17.73;7.40;;;;;;;-24.52;55.46;99235.19;6227695;28;20565;-70
2023/12/08 05:08:18;;;;;;;18.42;7.18;;;;;;;-24.31;55.66;99237.47;6227742;28;20410;-70
2023/12/08 05:11:20;;;;;;;15.25;4.88;;;;;;;-24.14;55.45;99256.69;6245539;28;20038;-70
2023/12/08 05:14:22;;;;;;;11.00;6.10;;;;;;;-24.05;55.48;99251.81;6244620;28;20057;-70
2023/12/08 05:17:26;;;;;;;16.37;6.10;;;;;;;-23.92;55.40;99258.94;6227349;28;20263;-70
2023/12/08 05:20:30;;;;;;;18.20;8.15;;;;;;;-23.88;55.10;99241.13;6243959;28;20448;-69
2023/12/08 05:23:34;;;;;;;13.57;5.63;;;;;;;-23.65;55.22;99250.97;6227421;28;20037;-70
2023/12/08 05:26:38;;;;;;;23.77;9.48;;;;;;;-23.59;55.01;99252.50;6245513;28;20041;-69
2023/12/08 05:29:42;;;;;;;26.23;10.23;;;;;;;-23.54;54.68;99252.13;6245203;28;20033;-70
2023/12/08 05:32:48;;;;;;;30.90;9.55;;;;;;;-23.36;54.43;99267.34;6245206;28;20045;-72
2023/12/08 05:35:49;;;;;;;4.13;3.38;;;;;;;-23.27;54.52;99267.41;6244394;28;20144;-71
2023/12/08 05:38:54;;;;;;;13.07;6.75;;;;;;;-23.22;54.63;99271.28;6244640;28;20049;-70
2023/12/08 05:41:58;;;;;;;9.48;4.85;;;;;;;-23.18;54.58;99260.91;6245142;28;20041;-70
2023/12/08 05:44:59;;;;;;;12.88;5.47;;;;;;;-23.18;53.88;99278.34;6244206;28;20042;-70
2023/12/08 05:48:02;;;;;;;12.18;5.82;;;;;;;-23.07;54.63;99261.09;6244195;28;20041;-72
2023/12/08 05:51:04;;;;;;;6.75;3.50;;;;;;;-23.07;53.95;99262.00;6243941;28;20041;-70
2023/12/08 05:54:08;;;;;;;9.70;4.43;;;;;;;-23.23;53.54;99269.50;6227284;28;20478;-72
2023/12/08 05:57:12;;;;;;;30.42;11.57;;;;;;;-23.38;53.86;99268.81;6243696;28;20140;-70
2023/12/08 06:00:20;;;;;;;16.67;6.82;;;;;;;-23.41;53.54;99250.16;6244787;28;20145;-70
2023/12/08 06:03:24;;;;;;;10.57;4.90;;;;;;;-23.34;53.63;99260.03;6244647;28;20041;-71
2023/12/08 06:06:28;;;;;;;7.78;4.13;;;;;;;-23.28;53.71;99259.78;6244240;28;20103;-71
2023/12/08 06:09:32;;;;;;;16.83;6.90;;;;;;;-23.26;53.41;99261.72;6244538;28;20507;-71
2023/12/08 06:12:35;;;;;;;8.95;3.55;;;;;;;-23.06;53.64;99262.91;6243757;28;20099;-71
2023/12/08 06:15:39;;;;;;;17.42;8.32;;;;;;;-22.88;53.05;99264.72;6244347;28;20041;-70
2023/12/08 06:18:46;;;;;;;18.73;7.07;;;;;;;-22.57;53.41;99265.34;6244430;28;20046;-70
2023/12/08 06:21:53;;;;;;;9.15;6.25;;;;;;;-22.28;52.67;99264.16;6244356;28;20037;-70
2023/12/08 06:24:56;;;;;;;14.15;7.10;;;;;;;-22.10;52.57;99252.59;6243622;28;20144;-70
2023/12/08 06:27:57;;;;;;;23.40;9.80;;;;;;;-21.93;52.36;99244.28;6226039;28;20126;-70
2023/12/08 06:30:59;;;;;;;27.50;10.50;;;;;;;-21.89;52.24;99236.34;6226465;28;20049;-70
2023/12/08 06:34:05;;;;;;;25.13;10.23;;;;;;;-21.68;52.54;99246.66;6247308;28;20045;-70
2023/12/08 06:37:07;;;;;;;24.80;8.82;;;;;;;-21.60;51.76;99236.69;6248581;28;20530;-71
2023/12/08 06:40:12;;;;;;;21.75;7.03;;;;;;;-21.37;52.06;99243.94;6248760;28;20515;-71
2023/12/08 06:43:13;;;;;;;21.30;8.60;;;;;;;-21.24;52.07;99240.06;6248098;28;20050;-70
2023/12/08 06:46:14;;;;;;;28.42;10.48;;;;;;;-21.26;51.83;99239.03;6248320;28;20585;-72
2023/12/08 06:49:18;;;;;;;19.83;7.15;;;;;;;-21.14;51.91;99240.19;6248821;28;20047;-70
2023/12/08 06:52:22;;;;;;;15.02;7.50;;;;;;;-21.09;51.93;99239.88;6248483;28;20045;-70
2023/12/08 06:55:27;;;;;;;19.52;8.95;;;;;;;-21.15;52.23;99223.41;6247819;28;20060;-70
2023/12/08 06:58:32;;;;;;;17.33;8.02;;;;;;;-21.41;51.62;99159.38;6248839;28;20037;-71
2023/12/08 07:01:39;;;;;;;23.30;9.05;;;;;;;-20.90;51.77;99222.50;6248636;28;20041;-71
2023/12/08 07:04:42;;;;;;;23.50;8.40;;;;;;;-20.88;51.77;99235.19;6248218;28;20049;-71
2023/12/08 07:07:44;;;;;;;20.15;8.15;;;;;;;-20.82;51.73;99229.88;6230496;28;20470;-69
2023/12/08 07:10:52;;;;;;;17.33;7.65;;;;;;;-20.65;51.59;99239.84;6248743;28;20037;-70
2023/12/08 07:13:59;;;;;;;15.40;7.25;;;;;;;-18.67;50.95;99235.81;6248411;28;20135;-70
2023/12/08 07:17:04;;;;;;;19.70;7.22;;;;;;;-15.45;46.88;99238.88;6248017;28;20104;-73
2023/12/08 07:20:09;;;;;;;21.38;7.40;;;;;;;-12.54;43.34;99234.31;6248092;28;20091;-71
2023/12/08 07:23:18;;;;;;;28.73;14.70;;;;;;;-10.18;39.97;99235.47;6248025;28;20038;-70
2023/12/08 07:26:24;;;;;;;21.83;7.68;;;;;;;-8.26;38.58;99235.81;6248078;28;20499;-70
2023/12/08 07:29:28;;;;;;;16.95;6.68;;;;;;;-6.78;37.52;99232.97;6229269;28;20046;-70
2023/12/08 07:32:32;;;;;;;14.68;6.07;;;;;;;-5.85;36.47;99225.53;6246869;28;20045;-71
2023/12/08 07:35:35;;;;;;;18.65;7.13;;;;;;;-5.21;36.18;99226.97;6247664;28;20426;-71
2023/12/08 07:38:43;;;;;;;20.38;7.25;;;;;;;-4.53;35.77;99231.03;6247699;28;20423;-71
2023/12/08 07:41:50;;;;;;;20.15;7.40;;;;;;;-3.84;34.00;99232.31;6247779;28;20519;-70
2023/12/08 07:44:55;;;;;;;28.90;8.65;;;;;;;-3.24;34.11;99224.63;6246659;28;20045;-70
2023/12/08 07:47:57;;;;;;;33.30;13.98;;;;;;;-2.53;33.66;99223.88;6247378;28;20045;-72
2023/12/08 07:51:01;;;;;;;16.70;6.95;;;;;;;-2.01;32.73;99219.09;6247849;28;20358;-70
2023/12/08 07:54:08;;;;;;;14.95;6.38;;;;;;;-2.16;31.85;99219.63;6247506;28;20053;-71
2023/12/08 07:57:13;;;;;;;14.23;7.20;;;;;;;-2.10;32.26;99219.75;6247320;28;20088;-70
2023/12/08 08:00:17;;;;;;;14.07;7.57;;;;;;;-2.19;32.40;99220.41;6247473;28;20041;-70
2023/12/08 08:03:18;;;;;;;19.15;8.50;;;;;;;-1.87;31.11;99223.75;6247035;28;20044;-71
2023/12/08 08:06:22;;;;;;;17.15;7.82;;;;;;;-1.48;30.27;99222.84;6246785;28;20057;-70
2023/12/08 08:09:26;;;;;;;22.25;7.55;;;;;;;-1.21;29.74;99221.66;6247007;28;20038;-70
2023/12/08 08:12:32;;;;;;;19.35;8.35;;;;;;;-1.55;29.37;99208.06;6246310;28;20136;-70
2023/12/08 08:15:33;;;;;;;15.00;7.15;;;;;;;-0.94;30.23;99218.72;6246388;28;20053;-71
2023/12/08 08:18:40;;;;;;;17.73;7.55;;;;;;;-0.44;28.57;99197.19;6246850;28;20495;-69
2023/12/08 08:21:42;;;;;;;19.88;7.60;;;;;;;0.02;29.08;99190.13;6245966;28;20053;-70
2023/12/08 08:24:45;;;;;;;21.80;8.10;;;;;;;0.49;29.11;99201.13;6246195;28;20127;-70
2023/12/08 08:27:48;;;;;;;17.83;7.20;;;;;;;0.63;28.39;99202.16;6246775;28;20180;-71
2023/12/08 08:30:53;;;;;;;25.27;8.95;;;;;;;0.80;28.22;99197.19;6246581;28;20502;-72
2023/12/08 08:33:57;;;;;;;20.45;8.57;;;;;;;0.74;27.79;99194.53;6228226;28;20049;-71
2023/12/08 08:37:03;;;;;;;22.63;9.65;;;;;;;0.98;27.46;99196.50;6246560;28;20152;-71
2023/12/08 08:40:09;;;;;;;21.65;8.43;;;;;;;0.93;27.05;99192.13;6246634;28;20047;-71
2023/12/08 08:43:15;;;;;;;22.45;8.20;;;;;;;0.38;26.94;99194.94;6246126;28;20056;-71
2023/12/08 08:46:17;;;;;;;33.03;12.23;;;;;;;0.24;27.71;99184.41;6245940;28;20045;-70
2023/12/08 08:49:19;;;;;;;23.58;8.50;;;;;;;0.15;27.58;99186.88;6245804;28;20077;-71
2023/12/08 08:52:25;;;;;;;21.92;7.60;;;;;;;0.02;27.49;99179.78;6245935;28;20049;-71
2023/12/08 08:55:27;;;;;;;24.17;9.18;;;;;;;-0.05;27.54;99187.44;6244743;28;20057;-71
2023/12/08 08:58:29;;;;;;;20.52;8.52;;;;;;;-0.04;26.91;99189.19;6245399;28;20049;-72
2023/12/08 09:01:31;;;;;;;23.67;9.60;;;;;;;0.12;27.10;99197.19;6245114;28;20045;-71
2023/12/08 09:04:35;;;;;;;19.67;8.65;;;;;;;0.09;26.82;99179.03;6245041;28;20418;-70
2023/12/08 09:07:39;;;;;;;25.45;9.73;;;;;;;0.13;26.99;99175.63;6245474;28;20476;-70
2023/12/08 09:10:45;;;;;;;30.92;11.02;;;;;;;0.13;26.83;99176.47;6245771;28;20053;-72
2023/12/08 09:13:50;;;;;;;26.75;11.20;;;;;;;0.13;26.98;99186.81;6245612;28;20042;-71
2023/12/08 09:16:57;;;;;;;21.85;9.48;;;;;;;0.15;26.74;99179.09;6245562;28;20053;-71
2023/12/08 09:20:01;;;;;;;;;;;;;;;0.34;26.90;99172.41;6245775;28;20117;-70
2023/12/08 09:23:07;;;;;;;23.10;10.38;;;;;;;-0.01;26.53;99163.34;6245305;28;20015;-71
2023/12/08 09:26:14;;;;;;;27.00;11.68;;;;;;;-0.04;26.21;99172.78;6245194;28;20069;-70
2023/12/08 09:29:19;;;;;;;24.92;9.65;;;;;;;-0.13;26.70;99176.13;6244736;28;20049;-71
2023/12/08 09:32:20;;;;;;;25.75;11.48;;;;;;;-0.19;26.64;99173.44;6244436;28;20042;-71
2023/12/08 09:35:30;;;;;;;28.33;10.68;;;;;;;-0.41;25.72;99176.53;6244923;28;20061;-71
2023/12/08 09:38:32;;;;;;;33.53;15.45;;;;;;;-0.63;26.97;99165.84;6244218;28;20140;-71
2023/12/08 09:41:39;;;;;;;47.45;18.60;;;;;;;-0.89;26.48;99173.16;6244731;28;20041;-70
2023/12/08 09:44:48;;;;;;;36.92;15.90;;;;;;;-1.10;26.98;99171.06;6244909;28;20144;-71
2023/12/08 09:47:57;;;;;;;30.80;12.48;;;;;;;-1.40;26.55;99167.06;6244833;28;20056;-71
2023/12/08 09:51:03;;;;;;;31.08;11.65;;;;;;;-1.76;26.87;99169.75;6245005;28;20076;-70
2023/12/08 09:54:06;;;;;;;27.50;11.65;;;;;;;-2.08;27.13;99171.66;6244204;28;20092;-71
2023/12/08 09:57:13;;;;;;;29.65;12.40;;;;;;;-2.18;26.51;99167.13;6226292;28;20049;-72
2023/12/08 10:00:15;;;;;;;35.35;12.93;;;;;;;-2.40;26.67;99164.06;6244007;28;20054;-72
2023/12/08 10:03:17;;;;;;;26.08;11.40;;;;;;;-4.30;27.65;99164.09;6243601;28;20430;-72
2023/12/08 10:06:26;;;;;;;26.70;11.60;;;;;;;-7.39;30.16;99164.72;6226732;28;20041;-70
2023/12/08 10:09:30;;;;;;;60.17;26.60;;;;;;;-10.07;33.17;99165.63;6244293;28;20033;-71
2023/12/08 10:12:33;;;;;;;39.33;16.80;;;;;;;-11.90;35.24;99177.41;6243600;28;20045;-70
2023/12/08 10:15:43;;;;;;;47.25;17.73;;;;;;;-13.29;36.72;99177.19;6243041;28;20061;-71
2023/12/08 10:18:48;;;;;;;40.67;15.38;;;;;;;-14.32;38.04;99166.88;6243801;28;20515;-70
2023/12/08 10:22:00;;;;;;;32.35;13.10;;;;;;;-15.18;38.14;99173.50;6244272;28;20049;-71
2023/12/08 10:25:04;;;;;;;29.25;10.38;;;;;;;-15.77;38.73;99190.22;6244336;28;20045;-70
2023/12/08 10:28:10;;;;;;;19.38;9.20;;;;;;;-16.28;38.70;99180.47;6243811;28;20045;-71
2023/12/08 10:31:14;;;;;;;39.22;12.18;;;;;;;-16.68;39.20;99184.94;6243894;28;20423;-71
2023/12/08 10:34:18;;;;;;;34.65;12.85;;;;;;;-17.03;39.04;99178.06;6244155;28;20042;-71
2023/12/08 10:37:19;;;;;;;41.78;13.98;;;;;;;-17.39;39.30;99179.41;6225508;28;20046;-70
2023/12/08 10:40:24;;;;;;;44.42;17.60;;;;;;;-17.75;39.27;99183.19;6243555;28;20191;-71
2023/12/08 10:43:26;;;;;;;37.42;13.82;;;;;;;-18.09;39.36;99186.22;6244034;28;20037;-70
2023/12/08 10:46:31;;;;;;;34.22;10.68;;;;;;;-18.41;39.70;99184.41;6243706;28;20046;-71
2023/12/08 10:49:37;;;;;;;25.58;10.77;;;;;;;-18.73;39.66;99179.22;6225779;28;20454;-72
2023/12/08 10:52:45;;;;;;;35.92;13.20;;;;;;;-18.98;39.99;99184.63;6243665;28;20219;-71
2023/12/08 10:56:00;;;;;;;36.67;13.25;;;;;;;-19.31;39.93;99182.56;6243224;28;20072;-71
2023/12/08 10:59:09;;;;;;;33.92;11.50;;;;;;;-19.61;40.39;99179.13;6227601;28;20136;-71
2023/12/08 11:02:24;;;;;;;43.42;11.00;;;;;;;-19.88;40.79;99181.72;6243404;28;20176;-71
2023/12/08 11:05:39;;;;;;;36.38;10.38;;;;;;;-20.27;40.95;99169.84;6243240;28;20046;-71
2023/12/08 11:08:46;;;;;;;26.52;8.75;;;;;;;-20.48;41.05;99179.66;6243427;28;20049;-70
2023/12/08 11:11:56;;;;;;;32.25;8.88;;;;;;;-20.73;41.12;99178.16;6243858;28;20046;-71
2023/12/08 11:15:07;;;;;;;34.33;10.63;;;;;;;-20.96;40.93;99186.91;6243566;28;20041;-71
2023/12/08 11:18:26;;;;;;;32.65;10.60;;;;;;;-21.18;41.99;99175.63;6243831;28;20045;-70
2023/12/08 11:21:28;;;;;;;29.42;9.23;;;;;;;-21.40;41.88;99175.25;6248353;28;20046;-71
2023/12/08 11:24:33;;;;;;;30.45;10.90;;;;;;;-21.59;41.54;99172.63;6247111;28;20140;-71
2023/12/08 11:27:49;;;;;;;31.05;10.45;;;;;;;-21.73;42.21;99167.88;6247406;28;20049;-71
2023/12/08 11:31:30;;;;;;;40.45;15.35;;;;;;;-21.87;43.14;99179.94;6230098;28;20045;-70
2023/12/08 11:34:42;;;;;;;43.75;13.60;;;;;;;-22.02;42.50;99183.44;6247364;28;20426;-70
2023/12/08 11:37:45;;;;;;;30.95;11.20;;;;;;;-22.17;42.72;99172.00;6247404;28;20045;-71
2023/12/08 11:40:55;;;;;;;40.80;11.07;;;;;;;-22.38;42.83;99156.69;6247205;28;20049;-71
2023/12/08 11:44:07;;;;;;;37.15;11.15;;;;;;;-22.45;42.96;99181.75;6247949;28;20037;-70
2023/12/08 11:47:14;;;;;;;25.33;9.35;;;;;;;-22.67;42.85;99164.66;6247165;28;20057;-71
2023/12/08 11:50:18;;;;;;;17.48;8.48;;;;;;;-22.75;43.37;99172.97;6248071;28;20507;-72
2023/12/08 11:53:20;;;;;;;20.20;9.25;;;;;;;-22.93;43.02;99166.13;6247346;28;20061;-72
2023/12/08 11:56:45;;;;;;;26.33;7.55;;;;;;;-23.06;43.48;99174.03;6229770;28;20502;-71
2023/12/08 11:59:49;;;;;;;27.63;8.25;;;;;;;-23.17;43.73;99170.44;6229558;28;20587;-72
2023/12/08 12:02:52;;;;;;;19.08;8.05;;;;;;;-23.21;43.51;99173.34;6246834;28;20058;-70
2023/12/08 12:05:59;;;;;;;20.75;8.68;;;;;;;-23.33;43.56;99178.69;6247228;28;20037;-70
2023/12/08 12:09:04;;;;;;;28.88;8.27;;;;;;;-23.43;43.93;99167.81;6246346;28;20084;-71
2023/12/08 12:12:14;;;;;;;25.27;7.97;;;;;;;-23.41;44.26;99175.41;6228988;28;20057;-71
2023/12/08 12:15:24;;;;;;;13.65;6.88;;;;;;;-23.54;43.89;99164.94;6229678;28;20049;-71
2023/12/08 12:18:30;;;;;;;16.90;7.57;;;;;;;-23.60;44.13;99171.06;6247246;28;20503;-71
2023/12/08 12:21:34;;;;;;;20.33;9.73;;;;;;;-23.79;44.45;99147.50;6246932;28;20037;-70
2023/12/08 12:24:37;;;;;;;35.88;11.80;;;;;;;-23.83;44.24;99160.31;6246889;28;20052;-71
2023/12/08 12:27:43;;;;;;;17.05;7.75;;;;;;;-23.89;44.53;99170.53;6246377;28;20053;-71
2023/12/08 12:30:49;;;;;;;22.50;7.75;;;;;;;-23.96;44.48;99173.13;6246268;28;20045;-71
2023/12/08 12:33:57;;;;;;;20.25;7.28;;;;;;;-24.01;44.57;99155.94;6246994;28;20080;-70
2023/12/08 12:36:58;;;;;;;15.38;7.95;;;;;;;-24.05;44.81;99158.13;6245677;28;20063;-71
2023/12/08 12:40:07;;;;;;;22.17;9.68;;;;;;;-24.08;45.17;99162.78;6246692;28;20049;-71
2023/12/08 12:43:16;;;;;;;23.48;7.32;;;;;;;-24.16;45.21;99166.06;6246860;28;20037;-71
2023/12/08 12:46:20;;;;;;;39.95;15.60;;;;;;;-24.29;44.72;99160.50;6245898;28;20041;-70
2023/12/08 12:49:21;;;;;;;36.53;14.10;;;;;;;-24.40;45.14;99154.38;6245907;28;20559;-71
2023/12/08 12:52:30;;;;;;;28.77;13.02;;;;;;;-24.45;44.90;99147.19;6247438;28;20558;-72
2023/12/08 12:55:37;;;;;;;37.75;13.35;;;;;;;-24.45;45.34;99144.72;6245977;28;20438;-69
2023/12/08 12:58:43;;;;;;;24.40;10.18;;;;;;;-24.40;45.75;99161.84;6246223;28;20041;-70
2023/12/08 13:01:50;;;;;;;27.83;11.77;;;;;;;-24.41;45.18;99151.75;6246126;28;20045;-70
2023/12/08 13:04:54;;;;;;;20.00;11.50;;;;;;;-24.38;45.33;99162.03;6245071;28;20383;-70
2023/12/08 13:08:03;;;;;;;28.70;12.68;;;;;;;-24.38;45.47;99160.41;6245720;28;20058;-70
2023/12/08 13:11:11;;;;;;;34.47;13.50;;;;;;;-24.42;45.38;99167.41;6245719;28;20045;-70
2023/12/08 13:14:15;;;;;;;44.58;18.15;;;;;;;-24.48;45.36;99161.78;6245803;28;20557;-71
2023/12/08 13:17:19;;;;;;;53.78;18.77;;;;;;;-24.50;45.57;99169.09;6228048;28;20049;-70
2023/12/08 13:20:24;;;;;;;30.55;12.23;;;;;;;-24.54;45.80;99157.94;6245920;28;20041;-71
2023/12/08 13:23:26;;;;;;;17.13;7.57;;;;;;;-24.56;46.01;99151.94;6245313;28;20057;-70
2023/12/08 13:26:30;;;;;;;29.65;10.77;;;;;;;-24.57;45.95;99157.59;6246077;28;20316;-70
2023/12/08 13:29:33;;;;;;;12.77;5.28;;;;;;;-24.60;46.54;99164.75;6244624;28;20127;-71
2023/12/08 13:32:37;;;;;;;23.05;8.23;;;;;;;-24.61;46.40;99155.53;6228112;28;20503;-70
2023/12/08 13:35:40;;;;;;;27.60;8.57;;;;;;;-24.62;46.16;99152.84;6245190;28;20037;-70
2023/12/08 13:38:42;;;;;;;25.92;10.45;;;;;;;-24.68;46.30;99153.09;6244231;28;20076;-70
2023/12/08 13:41:43;;;;;;;25.85;11.60;;;;;;;-24.66;46.59;99141.72;6244443;28;20049;-70
2023/12/08 13:44:45;;;;;;;27.30;13.70;;;;;;;-24.72;46.54;99141.06;6243890;28;20049;-72
2023/12/08 13:47:50;;;;;;;28.85;11.30;;;;;;;-24.86;46.64;99126.28;6244574;28;20037;-71
2023/12/08 13:50:52;;;;;;;27.88;12.18;;;;;;;-24.83;46.86;99136.56;6243963;28;20060;-70
2023/12/08 13:53:57;;;;;;;28.60;12.38;;;;;;;-24.92;46.83;99113.22;6244066;28;20049;-70
2023/12/08 13:57:00;;;;;;;31.80;11.60;;;;;;;-24.89;46.85;99121.00;6227330;28;20047;-70
2023/12/08 14:00:06;;;;;;;22.90;10.35;;;;;;;-25.09;47.08;99097.38;6227512;28;20511;-70
2023/12/08 14:03:13;;;;;;;10.70;6.93;;;;;;;-25.00;46.57;99128.16;6244690;28;20046;-70
2023/12/08 14:06:19;;;;;;;12.52;7.18;;;;;;;-25.04;47.03;99122.72;6244825;28;20038;-70
2023/12/08 14:09:22;;;;;;;13.50;5.88;;;;;;;-25.09;47.25;99122.22;6242791;28;20519;-70
2023/12/08 14:12:27;;;;;;;4.32;3.08;;;;;;;-25.15;47.46;99115.75;6243563;28;20144;-70